Romeroville, New Mexico
Current Conditions -  °F | °C
As of 5:53 AM on Thursday 30 Oct 2014 (Local Time) from KLVS Reporting Station
Clear Clear  
Wind Chill: 30°   Ceiling: Unl
Heat Index: 36°   Visibility: 10mi
Dew Point: 14°   Wind: 8mph
Humidity: 41%   Direction: 360°N
Pressure: 30.32"   Gusts: NA
Location:  35.5292°N, 104.927°W
Report Text: KLVS 301153Z AUTO 36007KT 10SM CLR 02/M10 A3032 RMK AO2 SLP207 T00221100 10094 20022 53013
Loading
Personal Weather Stations






























Interactive Weather Map
Tropical Storm Tracking
New forecast layout! Learn more

10-Day Weather Forecast

Advertisements
Track Severe Weather on mobile